createdAt,value
2018-11-04T00:01:53.021Z,62.77
2018-11-04T00:04:21.305Z,60.10
2018-11-04T00:06:49.582Z,57.67
2018-11-04T00:09:17.865Z,61.90
2018-11-04T00:11:46.621Z,61.43
2018-11-04T00:14:14.897Z,61.33
2018-11-04T00:16:43.139Z,57.43
2018-11-04T00:19:11.414Z,54.80
2018-11-04T00:21:39.657Z,57.67
2018-11-04T00:24:07.997Z,58.97
2018-11-04T00:26:36.178Z,53.67
2018-11-04T00:29:04.473Z,52.00
2018-11-04T00:31:32.719Z,50.43
2018-11-04T00:34:01.001Z,49.03
2018-11-04T00:36:29.270Z,48.83
2018-11-04T00:38:57.530Z,44.33
2018-11-04T00:41:25.920Z,46.93
2018-11-04T00:43:54.217Z,41.07
2018-11-04T00:46:22.498Z,45.97
2018-11-04T00:48:50.826Z,43.53
2018-11-04T00:51:19.074Z,42.00
2018-11-04T00:53:48.406Z,41.00
2018-11-04T00:56:16.636Z,40.07
2018-11-04T00:58:45.060Z,39.80
2018-11-04T01:01:13.299Z,39.27
2018-11-04T01:03:41.691Z,40.97
2018-11-04T01:06:09.949Z,36.57
2018-11-04T01:08:38.193Z,38.93
2018-11-04T01:11:06.458Z,39.83
2018-11-04T01:13:35.317Z,35.27
2018-11-04T01:16:03.737Z,36.60
2018-11-04T01:18:32.089Z,39.60
2018-11-04T01:21:00.389Z,40.93
2018-11-04T01:23:28.603Z,34.27
2018-11-04T01:25:56.887Z,37.57
2018-11-04T01:28:25.120Z,35.07
2018-11-04T01:30:53.413Z,36.40
2018-11-04T01:33:21.657Z,39.00
2018-11-04T01:35:49.937Z,36.03
2018-11-04T01:38:18.198Z,38.70
2018-11-04T01:40:46.446Z,39.77
2018-11-04T01:43:14.683Z,41.17
2018-11-04T01:45:42.968Z,36.53
2018-11-04T01:48:11.220Z,39.07
2018-11-04T01:57:33.599Z,46.57
2018-11-04T02:00:01.928Z,41.60
2018-11-04T02:02:30.262Z,41.27
2018-11-04T02:04:58.706Z,39.67
2018-11-04T02:07:27.034Z,41.93
2018-11-04T02:09:55.344Z,40.43
2018-11-04T02:12:23.786Z,40.30
2018-11-04T02:14:52.082Z,43.33
2018-11-04T02:17:20.973Z,37.20
2018-11-04T02:19:49.375Z,36.63
2018-11-04T02:22:17.758Z,39.67
2018-11-04T02:24:46.083Z,35.43
2018-11-04T02:27:14.426Z,37.83
2018-11-04T02:29:42.698Z,40.50
2018-11-04T02:32:11.014Z,36.63
2018-11-04T02:34:39.339Z,39.67
2018-11-04T02:37:07.889Z,36.87
2018-11-04T02:39:36.198Z,40.97
2018-11-04T02:42:04.845Z,38.83
2018-11-04T02:44:33.156Z,37.97
2018-11-04T02:47:01.595Z,36.70
2018-11-04T02:49:29.792Z,40.47
2018-11-04T02:51:58.195Z,37.07
2018-11-04T02:54:26.504Z,38.33
2018-11-04T02:56:54.885Z,37.53
2018-11-04T02:59:23.185Z,38.53
2018-11-04T03:01:51.569Z,37.60
2018-11-04T03:04:19.834Z,37.13
2018-11-04T03:06:48.165Z,38.40
2018-11-04T03:09:16.468Z,44.47
2018-11-04T03:11:44.801Z,40.40
2018-11-04T03:14:13.157Z,42.67
2018-11-04T03:16:41.496Z,43.23
2018-11-04T03:19:09.798Z,40.17
2018-11-04T03:21:38.082Z,46.07
2018-11-04T03:24:06.603Z,47.87
2018-11-04T03:26:34.930Z,42.00
2018-11-04T03:29:03.305Z,45.93
2018-11-04T03:31:31.679Z,43.30
2018-11-04T03:33:59.980Z,44.40
2018-11-04T03:36:28.340Z,44.67
2018-11-04T03:38:56.747Z,44.63
2018-11-04T03:41:25.104Z,45.47
2018-11-04T03:43:53.490Z,43.47
2018-11-04T03:46:21.799Z,39.80
2018-11-04T03:48:50.136Z,42.40
2018-11-04T03:51:18.459Z,44.47
2018-11-04T03:53:46.778Z,48.27
2018-11-04T03:56:15.083Z,43.97
2018-11-04T03:58:43.382Z,44.20
2018-11-04T04:01:11.790Z,43.80
2018-11-04T04:03:40.128Z,47.63
2018-11-04T04:06:08.453Z,44.80
2018-11-04T04:08:36.761Z,43.87
2018-11-04T04:11:05.272Z,52.03
2018-11-04T04:13:33.617Z,43.77
2018-11-04T04:16:01.981Z,47.10
2018-11-04T04:18:30.309Z,49.87
2018-11-04T04:21:03.683Z,44.23
2018-11-04T04:23:32.099Z,48.80
2018-11-04T04:26:00.422Z,46.53
2018-11-04T04:28:28.746Z,50.07
2018-11-04T04:30:57.057Z,41.97
2018-11-04T04:33:25.515Z,45.30
2018-11-04T04:35:53.844Z,48.80
2018-11-04T04:38:22.388Z,49.27
2018-11-04T04:40:50.767Z,46.23
2018-11-04T04:43:19.159Z,48.97
2018-11-04T04:45:47.923Z,51.87
2018-11-04T04:48:16.239Z,47.00
2018-11-04T04:50:44.588Z,47.60
2018-11-04T04:53:12.891Z,44.40
2018-11-04T04:55:41.231Z,46.60
2018-11-04T04:58:09.682Z,49.90
2018-11-04T05:00:37.998Z,52.57
2018-11-04T05:03:06.507Z,53.13
2018-11-04T05:05:34.820Z,47.60
2018-11-04T05:08:03.193Z,50.67
2018-11-04T05:10:31.515Z,51.90
2018-11-04T05:12:59.870Z,53.90
2018-11-04T05:15:28.172Z,55.63
2018-11-04T05:17:56.625Z,50.10
2018-11-04T05:20:25.071Z,49.23
2018-11-04T05:22:53.407Z,51.73
2018-11-04T05:25:21.714Z,59.80
2018-11-04T05:27:49.988Z,60.23
2018-11-04T05:30:18.362Z,62.20
2018-11-04T05:32:46.690Z,64.03
2018-11-04T05:35:14.985Z,58.40
2018-11-04T05:37:43.325Z,61.13
2018-11-04T05:40:11.625Z,58.23
2018-11-04T05:42:40.020Z,59.73
2018-11-04T05:45:08.578Z,60.43
2018-11-04T05:47:36.859Z,54.33
2018-11-04T05:50:06.141Z,69.03
2018-11-04T05:52:34.746Z,58.37
2018-11-04T05:55:03.128Z,60.60
2018-11-04T05:57:31.443Z,58.77
2018-11-04T05:59:59.832Z,56.80
2018-11-04T06:02:28.228Z,57.90
2018-11-04T06:04:56.654Z,55.73
2018-11-04T06:07:24.931Z,59.57
2018-11-04T06:09:53.262Z,61.70
2018-11-04T06:12:21.580Z,61.33
2018-11-04T06:14:49.999Z,57.80
2018-11-04T06:17:18.294Z,58.90
2018-11-04T06:19:46.607Z,64.80
2018-11-04T06:22:15.067Z,62.67
2018-11-04T06:24:43.399Z,63.67
2018-11-04T06:27:11.758Z,64.00
2018-11-04T06:29:40.047Z,66.90
2018-11-04T06:32:08.459Z,64.20
2018-11-04T06:34:36.868Z,57.87
2018-11-04T06:37:05.439Z,67.13
2018-11-04T06:39:33.759Z,65.73
2018-11-04T06:42:02.166Z,62.80
2018-11-04T06:44:30.631Z,70.77
2018-11-04T06:46:59.148Z,67.00
2018-11-04T06:49:27.502Z,69.43
2018-11-04T06:51:55.880Z,65.33
2018-11-04T06:54:24.871Z,62.07
2018-11-04T06:56:53.246Z,65.73
2018-11-04T06:59:22.469Z,61.53
2018-11-04T07:01:50.833Z,60.57
2018-11-04T07:04:21.694Z,64.87
2018-11-04T07:06:51.108Z,58.83
2018-11-04T07:09:19.684Z,64.63
2018-11-04T07:11:49.284Z,61.87
2018-11-04T07:14:18.510Z,62.77
2018-11-04T07:16:47.129Z,71.47
2018-11-04T07:19:15.978Z,70.90
2018-11-04T07:21:45.183Z,69.27
2018-11-04T07:24:13.638Z,65.87
2018-11-04T07:26:42.165Z,65.03
2018-11-04T07:29:10.695Z,66.03
2018-11-04T07:31:39.334Z,61.93
2018-11-04T07:34:08.072Z,70.00
2018-11-04T07:36:36.431Z,67.43
2018-11-04T07:39:10.039Z,69.33
2018-11-04T07:41:38.506Z,67.23
2018-11-04T07:44:07.396Z,68.30
2018-11-04T07:46:36.559Z,64.90
2018-11-04T07:49:05.338Z,71.97
2018-11-04T07:51:33.762Z,71.60
2018-11-04T07:54:01.960Z,69.53
2018-11-04T07:56:30.266Z,68.90
2018-11-04T07:58:58.598Z,68.93
2018-11-04T08:01:26.971Z,76.57
2018-11-04T08:03:55.363Z,68.60
2018-11-04T08:06:23.728Z,65.43
2018-11-04T08:08:52.090Z,67.90
2018-11-04T08:11:20.467Z,66.67
2018-11-04T08:13:48.786Z,64.03
2018-11-04T08:16:17.218Z,62.93
2018-11-04T08:18:45.555Z,59.27
2018-11-04T08:21:13.934Z,61.37
2018-11-04T08:23:42.238Z,57.63
2018-11-04T08:26:10.684Z,55.00
2018-11-04T08:28:39.039Z,55.07
2018-11-04T08:31:07.331Z,58.57
2018-11-04T08:33:35.705Z,50.80
2018-11-04T08:36:04.087Z,51.40
2018-11-04T08:38:32.407Z,52.77
2018-11-04T08:41:00.738Z,51.73
2018-11-04T08:43:29.061Z,46.20
2018-11-04T08:45:57.493Z,47.90
2018-11-04T08:48:25.684Z,46.73
2018-11-04T08:50:54.027Z,46.53
2018-11-04T08:53:22.696Z,54.37
2018-11-04T08:55:51.149Z,57.83
2018-11-04T08:58:19.443Z,59.33
2018-11-04T09:00:47.758Z,53.77
2018-11-04T09:03:16.051Z,58.00
2018-11-04T09:05:44.402Z,63.73
2018-11-04T09:08:12.714Z,69.40
2018-11-04T09:10:41.028Z,70.40
2018-11-04T09:13:09.399Z,68.83
2018-11-04T09:15:37.810Z,66.27
2018-11-04T09:18:06.443Z,59.30
2018-11-04T09:20:34.780Z,61.63
2018-11-04T09:23:03.162Z,62.60
2018-11-04T09:25:31.486Z,61.53
2018-11-04T09:27:59.906Z,60.30
2018-11-04T09:30:28.240Z,56.03
2018-11-04T09:33:37.112Z,54.30
2018-11-04T09:36:07.356Z,57.40
2018-11-04T09:38:36.996Z,56.17
2018-11-04T09:41:07.068Z,51.83
2018-11-04T09:43:36.756Z,52.67
2018-11-04T09:46:05.524Z,69.67
2018-11-04T09:48:34.255Z,56.90
2018-11-04T09:51:03.758Z,55.57
2018-11-04T09:53:34.719Z,56.53
2018-11-04T09:58:41.573Z,56.23
2018-11-04T10:01:16.797Z,50.03
2018-11-04T10:03:50.733Z,58.10
2018-11-04T10:06:24.562Z,52.50
2018-11-04T10:14:39.344Z,67.87
2018-11-04T10:17:16.359Z,56.27
2018-11-04T10:19:45.903Z,48.83
2018-11-04T10:22:17.317Z,48.67
2018-11-04T10:25:05.338Z,54.80
2018-11-04T10:33:24.971Z,47.43
2018-11-04T10:39:13.481Z,53.40
2018-11-04T10:41:45.589Z,52.57
2018-11-04T10:44:14.209Z,47.73
2018-11-04T10:46:42.817Z,47.97
2018-11-04T10:49:11.315Z,47.00
2018-11-04T10:51:39.995Z,49.23
2018-11-04T10:54:08.284Z,45.43
2018-11-04T10:56:37.003Z,45.37
2018-11-04T10:59:05.994Z,50.27
2018-11-04T11:01:34.682Z,48.50
2018-11-04T11:04:03.004Z,45.13
2018-11-04T11:06:31.346Z,44.20
2018-11-04T11:08:59.679Z,46.30
2018-11-04T11:11:28.104Z,49.80
2018-11-04T11:13:56.421Z,46.90
2018-11-04T11:16:24.811Z,47.03
2018-11-04T11:18:53.160Z,45.53
2018-11-04T11:21:21.718Z,45.00
2018-11-04T11:23:50.070Z,45.47
2018-11-04T11:26:18.361Z,45.67
2018-11-04T11:28:46.828Z,45.60
2018-11-04T11:31:15.161Z,48.63
2018-11-04T11:33:43.520Z,43.03
2018-11-04T11:36:11.919Z,44.67
2018-11-04T11:38:40.537Z,53.97
2018-11-04T11:41:08.936Z,47.13
2018-11-04T11:43:37.265Z,43.57
2018-11-04T11:46:06.113Z,50.10
2018-11-04T11:48:34.443Z,46.53
2018-11-04T11:51:02.764Z,46.67
2018-11-04T11:53:31.123Z,42.90
2018-11-04T11:55:59.469Z,46.03
2018-11-04T11:58:28.891Z,47.40
2018-11-04T12:00:57.223Z,42.47
2018-11-04T12:03:25.523Z,41.33
2018-11-04T12:05:53.924Z,43.47
2018-11-04T12:08:22.261Z,42.70
2018-11-04T12:10:50.565Z,39.63
2018-11-04T12:13:18.895Z,41.53
2018-11-04T12:15:47.288Z,39.77
2018-11-04T12:18:15.644Z,39.57
2018-11-04T12:20:43.988Z,39.43
2018-11-04T12:23:12.319Z,41.07
2018-11-04T12:25:40.679Z,34.90
2018-11-04T12:28:09.065Z,37.53
2018-11-04T12:30:37.385Z,35.73
2018-11-04T12:33:05.775Z,35.30
2018-11-04T12:35:34.106Z,34.13
2018-11-04T12:38:02.499Z,32.23
2018-11-04T12:40:30.882Z,39.23
2018-11-04T12:42:59.184Z,36.70
2018-11-04T12:45:27.534Z,36.33
2018-11-04T12:47:55.983Z,37.67
2018-11-04T12:50:24.262Z,37.03
2018-11-04T12:52:52.578Z,38.90
2018-11-04T12:55:20.870Z,37.07
2018-11-04T12:57:49.203Z,35.17
2018-11-04T13:00:17.602Z,36.70
2018-11-04T13:02:46.180Z,36.03
2018-11-04T13:05:14.508Z,35.93
2018-11-04T13:07:48.094Z,35.20
2018-11-04T13:10:54.168Z,37.53
2018-11-04T13:13:23.066Z,46.40
2018-11-04T13:15:51.442Z,44.37
2018-11-04T13:18:19.782Z,43.33
2018-11-04T13:20:48.191Z,39.80
2018-11-04T13:23:16.654Z,40.73
2018-11-04T13:25:45.030Z,37.43
2018-11-04T13:28:13.354Z,40.27
2018-11-04T13:30:41.671Z,35.40
2018-11-04T13:33:10.048Z,33.53
2018-11-04T13:35:38.379Z,35.70
2018-11-04T13:38:06.813Z,34.50
2018-11-04T13:40:35.121Z,34.57
2018-11-04T13:43:03.499Z,34.00
2018-11-04T13:45:31.847Z,33.97
2018-11-04T13:48:00.220Z,32.27
2018-11-04T13:50:28.882Z,34.37
2018-11-04T13:52:58.323Z,35.30
2018-11-04T13:55:26.642Z,33.73
2018-11-04T13:57:55.111Z,32.87
2018-11-04T14:00:23.436Z,31.17
2018-11-04T14:02:51.795Z,30.60
2018-11-04T14:05:20.127Z,31.83
2018-11-04T14:07:48.410Z,32.07
2018-11-04T14:10:17.175Z,30.60
2018-11-04T14:12:46.117Z,28.53
2018-11-04T14:15:15.940Z,29.87
2018-11-04T14:17:44.309Z,27.20
2018-11-04T14:20:13.359Z,26.27
2018-11-04T14:22:42.127Z,26.97
2018-11-04T14:25:11.457Z,26.87
2018-11-04T14:27:39.797Z,27.23
2018-11-04T14:30:10.259Z,26.17
2018-11-04T14:32:38.546Z,25.50
2018-11-04T14:35:08.045Z,27.87
2018-11-04T14:37:56.476Z,25.80
2018-11-04T14:40:28.472Z,20.10
2018-11-04T14:42:56.832Z,19.97
2018-11-04T14:45:25.257Z,18.80
2018-11-04T14:47:53.574Z,17.07
2018-11-04T14:50:21.907Z,15.83
2018-11-04T14:52:50.303Z,13.47
2018-11-04T14:55:18.571Z,14.40
2018-11-04T14:57:46.866Z,11.97
2018-11-04T15:00:16.299Z,12.53
2018-11-04T15:02:44.768Z,13.10
2018-11-04T15:05:13.142Z,12.40
2018-11-04T15:07:41.671Z,11.57
2018-11-04T15:10:12.350Z,12.10
2018-11-04T15:12:40.831Z,11.37
2018-11-04T15:15:11.706Z,11.27
2018-11-04T15:17:40.418Z,11.63
2018-11-04T15:20:09.644Z,12.90
2018-11-04T15:22:41.885Z,13.70
2018-11-04T15:25:10.211Z,11.67
2018-11-04T15:27:38.548Z,10.50
2018-11-04T15:30:08.062Z,12.10
2018-11-04T15:32:36.551Z,15.30
2018-11-04T15:35:05.618Z,15.27
2018-11-04T15:37:34.138Z,12.63
2018-11-04T15:40:02.513Z,12.83
2018-11-04T15:42:30.836Z,12.37
2018-11-04T15:44:59.189Z,13.67
2018-11-04T15:47:27.645Z,13.70
2018-11-04T15:49:56.035Z,16.27
2018-11-04T15:52:24.394Z,18.17
2018-11-04T15:54:52.789Z,17.00
2018-11-04T15:57:21.206Z,16.77
2018-11-04T15:59:49.626Z,16.37
2018-11-04T16:02:18.053Z,16.93
2018-11-04T16:04:46.461Z,18.17
2018-11-04T16:07:14.810Z,21.63
2018-11-04T16:09:43.297Z,22.27
2018-11-04T16:12:12.498Z,23.37
2018-11-04T16:14:41.127Z,24.50
2018-11-04T16:17:09.411Z,23.10
2018-11-04T16:19:37.831Z,22.87
2018-11-04T16:22:06.178Z,23.40
2018-11-04T16:24:34.921Z,22.70
2018-11-04T16:27:03.744Z,23.37
2018-11-04T16:29:32.313Z,23.63
2018-11-04T16:32:00.941Z,19.87
2018-11-04T16:34:31.403Z,24.53
2018-11-04T16:37:31.583Z,22.53
2018-11-04T16:40:00.819Z,22.87
2018-11-04T16:42:29.139Z,23.13
2018-11-04T16:44:57.603Z,23.10
2018-11-04T16:47:25.966Z,22.93
2018-11-04T16:49:54.349Z,22.43
2018-11-04T16:52:22.686Z,28.37
2018-11-04T16:54:51.111Z,24.60
2018-11-04T16:57:19.500Z,22.00
2018-11-04T16:59:47.954Z,24.43
2018-11-04T17:02:16.278Z,22.67
2018-11-04T17:04:44.818Z,24.93
2018-11-04T17:07:13.067Z,24.00
2018-11-04T17:09:41.964Z,25.03
2018-11-04T17:12:10.999Z,23.73
2018-11-04T17:14:39.336Z,23.07
2018-11-04T17:17:07.903Z,23.93
2018-11-04T17:19:36.293Z,21.77
2018-11-04T17:22:04.667Z,23.27
2018-11-04T17:24:32.966Z,23.10
2018-11-04T17:27:01.662Z,23.63
2018-11-04T17:29:30.091Z,22.03
2018-11-04T17:31:58.507Z,21.43
2018-11-04T17:34:27.002Z,22.07
2018-11-04T17:36:55.403Z,23.40
2018-11-04T17:39:23.768Z,36.97
2018-11-04T17:41:52.091Z,44.23
2018-11-04T17:44:20.619Z,25.03
2018-11-04T17:46:49.005Z,25.77
2018-11-04T17:49:17.361Z,21.47
2018-11-04T17:51:45.958Z,21.83
2018-11-04T17:54:14.368Z,23.93
2018-11-04T17:56:42.715Z,25.23
2018-11-04T17:59:11.189Z,28.17
2018-11-04T18:01:39.510Z,20.57
2018-11-04T18:04:07.952Z,22.07
2018-11-04T18:06:36.485Z,20.10
2018-11-04T18:09:08.099Z,22.33
2018-11-04T18:11:36.594Z,21.33
2018-11-04T18:14:05.342Z,22.60
2018-11-04T18:16:33.847Z,22.93
2018-11-04T18:19:02.194Z,21.17
2018-11-04T18:21:30.792Z,27.33
2018-11-04T18:23:59.270Z,23.00
2018-11-04T18:26:27.874Z,23.07
2018-11-04T18:28:56.257Z,25.57
2018-11-04T18:31:24.606Z,24.80
2018-11-04T18:33:53.039Z,20.87
2018-11-04T18:36:21.373Z,21.00
2018-11-04T18:38:49.852Z,21.73
2018-11-04T18:41:18.244Z,25.20
2018-11-04T18:43:47.032Z,21.63
2018-11-04T18:46:15.840Z,26.13
2018-11-04T18:48:44.438Z,20.50
2018-11-04T18:51:13.024Z,22.50
2018-11-04T18:53:41.392Z,23.37
2018-11-04T18:56:09.971Z,28.87
2018-11-04T18:58:38.316Z,22.80
2018-11-04T19:01:06.940Z,23.10
2018-11-04T19:03:35.368Z,26.07
2018-11-04T19:06:03.927Z,24.10
2018-11-04T19:08:32.476Z,25.73
2018-11-04T19:11:01.101Z,26.70
2018-11-04T19:13:29.504Z,30.53
2018-11-04T19:15:58.133Z,28.63
2018-11-04T19:18:26.500Z,28.23
2018-11-04T19:20:55.061Z,30.77
2018-11-04T19:23:23.531Z,28.13
2018-11-04T19:25:52.163Z,31.00
2018-11-04T19:28:20.518Z,30.40
2018-11-04T19:30:49.044Z,30.33
2018-11-04T19:33:17.417Z,31.30
2018-11-04T19:35:45.874Z,32.30
2018-11-04T19:38:14.422Z,30.27
2018-11-04T19:40:42.754Z,26.93
2018-11-04T19:43:11.243Z,30.80
2018-11-04T19:45:39.594Z,29.60
2018-11-04T19:48:07.956Z,29.57
2018-11-04T19:50:36.333Z,30.07
2018-11-04T19:53:04.688Z,30.67
2018-11-04T19:55:33.028Z,34.27
2018-11-04T19:58:01.433Z,30.47
2018-11-04T20:00:30.583Z,33.63
2018-11-04T20:02:58.962Z,32.57
2018-11-04T20:05:27.488Z,31.13
2018-11-04T20:07:55.878Z,32.80
2018-11-04T20:10:24.256Z,31.70
2018-11-04T20:12:57.774Z,35.87
2018-11-04T20:15:26.213Z,31.07
2018-11-04T20:17:54.621Z,30.80
2018-11-04T20:20:25.545Z,30.07
2018-11-04T20:22:54.147Z,33.63
2018-11-04T20:25:28.170Z,41.10
2018-11-04T20:27:56.562Z,41.57
2018-11-04T20:30:24.881Z,37.17
2018-11-04T20:32:58.590Z,35.53
2018-11-04T20:35:26.911Z,38.63
2018-11-04T20:37:55.478Z,36.27
2018-11-04T20:40:29.166Z,39.17
2018-11-04T20:42:57.670Z,36.67
2018-11-04T20:45:26.016Z,38.27
2018-11-04T20:47:59.869Z,35.40
2018-11-04T20:50:33.647Z,42.63
2018-11-04T20:53:02.219Z,42.03
2018-11-04T20:55:35.804Z,38.37
2018-11-04T20:58:04.319Z,42.43
2018-11-04T21:00:32.727Z,42.23
2018-11-04T21:03:01.055Z,44.07
2018-11-04T21:05:29.459Z,45.07
2018-11-04T21:07:57.822Z,46.10
2018-11-04T21:10:30.088Z,47.63
2018-11-04T21:12:58.488Z,40.40
2018-11-04T21:15:26.877Z,46.93
2018-11-04T21:17:55.330Z,45.57
2018-11-04T21:20:23.754Z,44.60
2018-11-04T21:22:52.465Z,41.63
2018-11-04T21:25:20.918Z,42.83
2018-11-04T21:27:49.544Z,41.10
2018-11-04T21:30:17.773Z,44.90
2018-11-04T21:32:46.236Z,45.40
2018-11-04T21:35:14.887Z,42.70
2018-11-04T21:37:43.312Z,43.67
2018-11-04T21:40:11.710Z,42.63
2018-11-04T21:42:40.441Z,43.17
2018-11-04T21:45:10.554Z,42.67
2018-11-04T21:47:38.891Z,42.57
2018-11-04T21:50:08.260Z,44.53
2018-11-04T21:52:36.595Z,41.27
2018-11-04T21:55:05.489Z,45.33
2018-11-04T21:57:33.797Z,45.47
2018-11-04T22:00:02.105Z,43.90
2018-11-04T22:02:30.616Z,45.67
2018-11-04T22:04:58.876Z,43.17
2018-11-04T22:07:27.278Z,42.70
2018-11-04T22:09:55.626Z,43.40
2018-11-04T22:12:24.053Z,44.83
2018-11-04T22:14:52.378Z,42.80
2018-11-04T22:17:20.715Z,43.87
2018-11-04T22:19:49.194Z,42.50
2018-11-04T22:22:17.619Z,41.57
2018-11-04T22:24:45.940Z,45.03
2018-11-04T22:27:14.433Z,44.23
2018-11-04T22:29:42.874Z,46.73
2018-11-04T22:32:11.222Z,45.60
2018-11-04T22:34:39.575Z,44.50
2018-11-04T22:37:08.016Z,42.30
2018-11-04T22:39:36.620Z,43.60
2018-11-04T22:42:05.345Z,43.50
2018-11-04T22:44:33.694Z,48.87
2018-11-04T22:47:02.065Z,45.70
2018-11-04T22:49:30.487Z,43.80
2018-11-04T22:51:58.859Z,42.57
2018-11-04T22:54:27.454Z,42.17
2018-11-04T22:56:55.811Z,39.63
2018-11-04T22:59:24.136Z,36.57
2018-11-04T23:01:52.637Z,40.87
2018-11-04T23:04:27.082Z,42.37
2018-11-04T23:06:55.458Z,40.13
2018-11-04T23:09:24.026Z,42.27
2018-11-04T23:11:52.443Z,46.07
2018-11-04T23:14:20.773Z,45.13
2018-11-04T23:16:49.351Z,43.27
2018-11-04T23:19:17.715Z,42.20
2018-11-04T23:21:46.039Z,40.37
2018-11-04T23:24:14.383Z,41.53
2018-11-04T23:26:42.703Z,41.23
2018-11-04T23:29:11.049Z,39.30
2018-11-04T23:31:39.394Z,43.50
2018-11-04T23:34:07.724Z,43.60
2018-11-04T23:36:36.119Z,42.80
2018-11-04T23:39:05.729Z,42.93
2018-11-04T23:41:34.251Z,40.40
2018-11-04T23:44:02.607Z,41.40
2018-11-04T23:46:31.118Z,42.87
2018-11-04T23:48:59.430Z,36.37
2018-11-04T23:51:27.731Z,38.53
2018-11-04T23:53:56.201Z,40.20
2018-11-04T23:56:24.523Z,38.23
2018-11-04T23:58:52.859Z,37.27
